Morrin, Canada
Current Conditions -  °F | °C
As of 2:00 AM on Tuesday 21 Oct 2014 (Local Time) from CYQF Reporting Station
Overcast Overcast  
Wind Chill: 48°   Ceiling: 23000
Heat Index: 48°   Visibility: 15mi
Dew Point: 36°   Wind: 0mph
Humidity: 62%   Direction: NA
Pressure: 29.58"   Gusts: NA
Location:  51.67°N, 112.77°W
Report Text: CYQF 210800Z 00000KT 15SM OVC230 09/02 A2958 RMK CI8 SLP021 DENSITY ALT 3200FT
Loading
Personal Weather Stations






























Interactive Weather Map
Tropical Storm Tracking
New forecast layout! Learn more

10-Day Weather Forecast

Advertisements
Track Severe Weather on mobile